createdAt,value
2023-01-31T00:03:14.608Z,97961.76
2023-01-31T00:13:43.466Z,97972.05
2023-01-31T00:24:13.268Z,97982.33
2023-01-31T00:34:40.893Z,97991.09
2023-01-31T00:45:10.950Z,97989.58
2023-01-31T00:55:38.662Z,97992.36
2023-01-31T01:06:07.383Z,98005.05
2023-01-31T01:16:35.534Z,98007.55
2023-01-31T01:27:05.451Z,98010.34
2023-01-31T01:37:34.276Z,98025.60
2023-01-31T01:48:08.910Z,98030.53
2023-01-31T01:58:41.149Z,98047.52
2023-01-31T02:09:15.768Z,98058.46
2023-01-31T02:19:56.971Z,98068.95
2023-01-31T02:31:00.894Z,98073.55
2023-01-31T02:41:35.005Z,98086.56
2023-01-31T02:52:18.037Z,98096.46
2023-01-31T03:02:46.122Z,98109.33
2023-01-31T03:13:30.264Z,98127.78
2023-01-31T03:24:00.588Z,98137.59
2023-01-31T03:34:29.069Z,98158.46
2023-01-31T03:45:03.179Z,98206.58
2023-01-31T03:55:36.930Z,98217.26
2023-01-31T04:06:05.216Z,98231.20
2023-01-31T04:16:33.435Z,98260.09
2023-01-31T04:27:00.906Z,98258.52
2023-01-31T04:37:28.426Z,98248.23
2023-01-31T04:47:56.202Z,98260.65
2023-01-31T04:58:24.828Z,98277.84
2023-01-31T05:08:54.686Z,98295.34
2023-01-31T05:19:22.249Z,98314.34
2023-01-31T05:29:50.516Z,98336.50
2023-01-31T05:40:19.622Z,98355.91
2023-01-31T05:50:50.101Z,98361.97
2023-01-31T06:01:18.658Z,98375.30
2023-01-31T06:11:46.276Z,98402.08
2023-01-31T06:22:14.524Z,98418.27
2023-01-31T06:32:42.636Z,98435.23
2023-01-31T06:43:10.808Z,98449.91
2023-01-31T06:53:38.965Z,98469.59
2023-01-31T07:04:07.144Z,98493.59
2023-01-31T07:14:35.548Z,98497.40
2023-01-31T07:25:04.332Z,98501.59
2023-01-31T07:35:31.094Z,98505.56
2023-01-31T07:45:59.853Z,98525.33
2023-01-31T07:56:26.419Z,98536.08
2023-01-31T08:06:56.847Z,98541.05
2023-01-31T08:17:25.047Z,98546.15
2023-01-31T08:27:53.357Z,98566.69
2023-01-31T08:38:21.925Z,98587.88
2023-01-31T08:48:48.504Z,98599.68
2023-01-31T08:59:16.727Z,98605.52
2023-01-31T09:09:45.010Z,98616.42
2023-01-31T09:20:13.965Z,98627.23
2023-01-31T09:30:41.660Z,98632.80
2023-01-31T09:41:21.029Z,98637.86
2023-01-31T09:51:54.000Z,98647.40
2023-01-31T10:02:41.178Z,98634.20
2023-01-31T10:13:18.743Z,98640.91
2023-01-31T10:23:52.150Z,98641.02
2023-01-31T10:34:25.126Z,98643.20
2023-01-31T10:44:57.057Z,98644.43
2023-01-31T10:55:49.271Z,98636.85
2023-01-31T11:06:17.871Z,98627.08
2023-01-31T11:16:46.132Z,98620.05
2023-01-31T11:27:23.055Z,98621.27
2023-01-31T11:37:55.490Z,98603.13
2023-01-31T11:48:26.929Z,98593.23
2023-01-31T11:58:57.843Z,98582.30
2023-01-31T12:09:28.389Z,98577.24
2023-01-31T12:20:27.189Z,98567.85
2023-01-31T12:31:15.948Z,98559.14
2023-01-31T12:41:49.532Z,98546.73
2023-01-31T12:52:26.904Z,98542.31
2023-01-31T13:03:08.267Z,98549.63
2023-01-31T13:13:42.351Z,98548.44
2023-01-31T13:24:14.854Z,98528.40
2023-01-31T13:34:51.440Z,98519.38
2023-01-31T13:45:25.733Z,98516.17
2023-01-31T13:55:54.314Z,98520.42
2023-01-31T14:06:22.032Z,98529.98
2023-01-31T14:16:52.909Z,98527.99
2023-01-31T14:27:24.110Z,98516.06
2023-01-31T14:37:59.467Z,98494.77
2023-01-31T14:48:41.749Z,98488.13
2023-01-31T14:59:28.540Z,98486.64
2023-01-31T15:09:56.540Z,98486.86
2023-01-31T15:20:43.318Z,98478.32
2023-01-31T15:31:33.085Z,98474.20
2023-01-31T15:42:20.691Z,98465.05
2023-01-31T15:52:48.349Z,98444.73
2023-01-31T16:03:23.470Z,98434.24
2023-01-31T16:13:52.275Z,98431.74
2023-01-31T16:24:21.660Z,98433.70
2023-01-31T16:34:56.498Z,98433.56
2023-01-31T16:45:35.611Z,98445.52
2023-01-31T16:56:24.144Z,98443.73
2023-01-31T17:07:05.380Z,98437.14
2023-01-31T17:17:37.349Z,98432.58
2023-01-31T17:28:06.275Z,98413.67
2023-01-31T17:38:34.223Z,98417.83
2023-01-31T17:49:02.203Z,98409.80
2023-01-31T17:59:30.043Z,98385.54
2023-01-31T18:09:58.551Z,98365.19
2023-01-31T18:20:26.698Z,98357.78
2023-01-31T18:30:55.072Z,98345.58
2023-01-31T18:41:23.788Z,98335.23
2023-01-31T18:51:50.897Z,98317.05
2023-01-31T19:02:18.887Z,98300.34
2023-01-31T19:12:46.475Z,98294.69
2023-01-31T19:23:15.010Z,98281.70
2023-01-31T19:33:43.232Z,98264.00
2023-01-31T19:44:11.903Z,98251.09
2023-01-31T19:54:41.485Z,98228.35
2023-01-31T20:05:10.291Z,98216.45
2023-01-31T20:15:37.771Z,98215.24
2023-01-31T20:26:05.314Z,98209.80
2023-01-31T20:36:33.271Z,98209.00
2023-01-31T20:47:01.504Z,98206.09
2023-01-31T20:57:29.791Z,98184.77
2023-01-31T21:07:57.993Z,98183.86
2023-01-31T21:18:29.404Z,98179.49
2023-01-31T21:29:00.680Z,98163.94
2023-01-31T21:39:29.554Z,98163.27
2023-01-31T21:49:57.654Z,98156.56
2023-01-31T22:00:26.145Z,98158.12
2023-01-31T22:11:01.373Z,98144.95
2023-01-31T22:21:30.887Z,98144.83
2023-01-31T22:31:58.664Z,98136.83
2023-01-31T22:42:26.288Z,98148.05
2023-01-31T22:52:54.383Z,98155.91
2023-01-31T23:03:23.014Z,98115.95
2023-01-31T23:13:51.451Z,98112.39
2023-01-31T23:24:20.511Z,98119.29
2023-01-31T23:34:48.710Z,98142.05
2023-01-31T23:45:16.635Z,98135.24
2023-01-31T23:55:44.275Z,98123.40
